Time;durP1;ratioP1;P1;durP2;ratioP2;P2;SDS_P1;SDS_P2;PMS_P1;PMS_P2;Temp;Humidity;BMP_temperature;BMP_pressure;BME280_temperature;BME280_humidity;BME280_pressure;Samples;Min_cycle;Max_cycle;Signal;HPM_P1;HPM_P2
2021/03/29 00:01:34;;;;;;;;;14.25;11.00;;;;;;;;3724565;37;18532;-64
2021/03/29 00:04:00;;;;;;;;;10.25;10.00;;;;;;;;3724723;37;21276;-65
2021/03/29 00:06:26;;;;;;;;;11.00;10.50;;;;;;;;3725066;37;21207;-65
2021/03/29 00:08:54;;;;;;;;;13.00;11.75;;;;;;;;3725310;38;18532;-63
2021/03/29 00:11:22;;;;;;;;;10.50;10.50;;;;;;;;3725270;37;21286;-64
2021/03/29 00:13:50;;;;;;;;;11.75;11.00;;;;;;;;3725210;38;21131;-65
2021/03/29 00:16:21;;;;;;;;;12.00;10.00;;;;;;;;3724571;37;21451;-64
2021/03/29 00:18:51;;;;;;;;;15.75;13.25;;;;;;;;3724737;38;21183;-65
2021/03/29 00:21:17;;;;;;;;;9.50;9.50;;;;;;;;3725197;38;21296;-65
2021/03/29 00:23:44;;;;;;;;;8.50;8.50;;;;;;;;3725031;37;21249;-64
2021/03/29 00:26:11;;;;;;;;;15.00;10.75;;;;;;;;3725058;38;21244;-65
2021/03/29 00:28:37;;;;;;;;;10.00;9.50;;;;;;;;3724680;37;21338;-63
2021/03/29 00:31:08;;;;;;;;;10.75;7.75;;;;;;;;3724791;38;21209;-64
2021/03/29 00:33:35;;;;;;;;;15.00;11.75;;;;;;;;3724720;37;21152;-64
2021/03/29 00:36:01;;;;;;;;;7.00;7.00;;;;;;;;3725185;37;21263;-64
2021/03/29 00:38:27;;;;;;;;;14.50;12.50;;;;;;;;3724929;37;21177;-64
2021/03/29 00:40:58;;;;;;;;;12.50;11.25;;;;;;;;3725177;37;21295;-64
2021/03/29 00:43:25;;;;;;;;;16.50;12.50;;;;;;;;3724741;37;21306;-62
2021/03/29 00:45:52;;;;;;;;;10.25;10.25;;;;;;;;3725184;37;21266;-64
2021/03/29 00:48:20;;;;;;;;;12.75;10.25;;;;;;;;3724968;38;21220;-62
2021/03/29 00:51:04;;;;;;;;;6.50;6.00;;;;;;;;3724716;37;21245;-65
2021/03/29 00:53:30;;;;;;;;;12.75;11.00;;;;;;;;3725249;37;21205;-65
2021/03/29 00:55:57;;;;;;;;;16.25;12.00;;;;;;;;3727097;37;21226;-65
2021/03/29 00:58:24;;;;;;;;;15.25;13.25;;;;;;;;3725453;38;21257;-63
2021/03/29 01:00:54;;;;;;;;;11.75;11.75;;;;;;;;3725328;37;21207;-65
2021/03/29 01:03:22;;;;;;;;;12.00;11.25;;;;;;;;3725145;38;20227;-65
2021/03/29 01:05:56;;;;;;;;;13.50;12.50;;;;;;;;3725044;37;21243;-65
2021/03/29 01:08:29;;;;;;;;;13.25;12.00;;;;;;;;3724995;38;21227;-65
2021/03/29 01:10:56;;;;;;;;;16.00;14.25;;;;;;;;3724756;37;21221;-64
2021/03/29 01:13:26;;;;;;;;;12.75;12.00;;;;;;;;3724834;38;21242;-64
2021/03/29 01:15:52;;;;;;;;;13.75;12.00;;;;;;;;3724583;38;21208;-64
2021/03/29 01:18:19;;;;;;;;;13.00;11.00;;;;;;;;3725122;37;21192;-64
2021/03/29 01:21:10;;;;;;;;;12.25;10.25;;;;;;;;3725035;38;21225;-64
2021/03/29 01:23:37;;;;;;;;;13.75;10.00;;;;;;;;3725111;37;21180;-65
2021/03/29 01:26:21;;;;;;;;;2.75;2.75;;;;;;;;3725046;37;21119;-66
2021/03/29 01:28:47;;;;;;;;;11.25;8.50;;;;;;;;3725089;37;21077;-64
2021/03/29 01:31:14;;;;;;;;;12.75;11.50;;;;;;;;3724962;38;21139;-63
2021/03/29 01:33:41;;;;;;;;;11.75;11.75;;;;;;;;3725136;38;21165;-64
2021/03/29 01:36:07;;;;;;;;;15.50;13.50;;;;;;;;3725295;37;18435;-65
2021/03/29 01:38:34;;;;;;;;;11.00;8.00;;;;;;;;3724673;38;21175;-65
2021/03/29 01:41:06;;;;;;;;;10.00;10.00;;;;;;;;3725116;38;21078;-65
2021/03/29 01:43:33;;;;;;;;;15.25;13.25;;;;;;;;3725184;37;21089;-65
2021/03/29 01:45:58;;;;;;;;;15.75;13.50;;;;;;;;3725146;38;21164;-64
2021/03/29 01:48:25;;;;;;;;;10.00;7.75;;;;;;;;3724982;37;21156;-64
2021/03/29 01:50:53;;;;;;;;;15.75;14.25;;;;;;;;3725289;37;18408;-65
2021/03/29 01:53:20;;;;;;;;;9.50;8.00;;;;;;;;3725234;38;21168;-63
2021/03/29 01:55:46;;;;;;;;;12.75;10.75;;;;;;;;3725186;37;21058;-65
2021/03/29 01:58:12;;;;;;;;;11.25;10.50;;;;;;;;3725192;37;21202;-64
2021/03/29 02:00:43;;;;;;;;;11.50;9.50;;;;;;;;3725151;37;21137;-64
2021/03/29 02:03:10;;;;;;;;;10.50;10.00;;;;;;;;3725164;38;21119;-64
2021/03/29 02:05:37;;;;;;;;;14.50;12.75;;;;;;;;3725187;37;21132;-63
2021/03/29 02:08:03;;;;;;;;;14.00;12.25;;;;;;;;3725088;37;21136;-65
2021/03/29 02:10:31;;;;;;;;;12.25;12.00;;;;;;;;3725061;38;21109;-63
2021/03/29 02:13:11;;;;;;;;;10.00;8.50;;;;;;;;3725274;38;21138;-63
2021/03/29 02:15:37;;;;;;;;;9.25;9.25;;;;;;;;3725202;37;21089;-63
2021/03/29 02:18:05;;;;;;;;;15.25;12.25;;;;;;;;3725170;37;21059;-64
2021/03/29 02:20:33;;;;;;;;;15.75;14.00;;;;;;;;3724682;38;18372;-65
2021/03/29 02:22:59;;;;;;;;;11.25;10.50;;;;;;;;3724961;38;21116;-62
2021/03/29 02:25:27;;;;;;;;;15.00;12.00;;;;;;;;3725241;37;21109;-63
2021/03/29 02:27:54;;;;;;;;;12.25;11.50;;;;;;;;3725098;37;21115;-63
2021/03/29 02:30:22;;;;;;;;;10.75;9.75;;;;;;;;3725013;38;21102;-64
2021/03/29 02:32:48;;;;;;;;;16.00;13.25;;;;;;;;3724552;37;21108;-63
2021/03/29 02:35:15;;;;;;;;;12.00;10.25;;;;;;;;3725087;38;21138;-63
2021/03/29 02:37:45;;;;;;;;;16.25;14.50;;;;;;;;3724640;37;21407;-63
2021/03/29 02:40:13;;;;;;;;;15.25;12.50;;;;;;;;3725197;38;21077;-65
2021/03/29 02:42:41;;;;;;;;;15.25;13.50;;;;;;;;3724571;38;21125;-64
2021/03/29 02:45:11;;;;;;;;;13.50;12.00;;;;;;;;3724642;37;21110;-63
2021/03/29 02:47:41;;;;;;;;;14.75;14.50;;;;;;;;3724965;37;21080;-64
2021/03/29 02:50:11;;;;;;;;;13.75;12.75;;;;;;;;3725045;37;21105;-63
2021/03/29 02:52:38;;;;;;;;;12.00;11.00;;;;;;;;3724505;37;21149;-65
2021/03/29 02:55:08;;;;;;;;;14.25;12.50;;;;;;;;3725153;37;21056;-63
2021/03/29 02:57:38;;;;;;;;;16.00;14.25;;;;;;;;3725189;37;21085;-64
2021/03/29 03:00:09;;;;;;;;;16.00;13.75;;;;;;;;3725108;37;21086;-63
2021/03/29 03:02:36;;;;;;;;;12.25;11.75;;;;;;;;3724427;38;21078;-63
2021/03/29 03:05:05;;;;;;;;;7.00;6.50;;;;;;;;3725075;38;21077;-63
2021/03/29 03:07:30;;;;;;;;;17.50;13.50;;;;;;;;3725042;38;20968;-64
2021/03/29 03:09:56;;;;;;;;;14.50;10.25;;;;;;;;3725118;37;21071;-64
2021/03/29 03:12:22;;;;;;;;;17.25;13.50;;;;;;;;3725181;37;18284;-63
2021/03/29 03:14:48;;;;;;;;;15.75;14.50;;;;;;;;3725104;38;18298;-65
2021/03/29 03:17:14;;;;;;;;;17.75;16.00;;;;;;;;3725056;37;18598;-64
2021/03/29 03:19:41;;;;;;;;;17.50;16.00;;;;;;;;3725035;38;18280;-63
2021/03/29 03:22:12;;;;;;;;;14.75;14.00;;;;;;;;3724994;37;21338;-66
2021/03/29 03:24:40;;;;;;;;;12.25;12.25;;;;;;;;3724994;38;21028;-66
2021/03/29 03:27:10;;;;;;;;;14.25;13.25;;;;;;;;3725079;38;21069;-64
2021/03/29 03:29:40;;;;;;;;;16.50;14.25;;;;;;;;3725166;38;18290;-65
2021/03/29 03:32:11;;;;;;;;;12.75;11.50;;;;;;;;3726820;38;21082;-64
2021/03/29 03:34:37;;;;;;;;;16.25;14.25;;;;;;;;3725452;37;21064;-64
2021/03/29 03:37:04;;;;;;;;;15.25;12.25;;;;;;;;3725282;37;21281;-64
2021/03/29 03:39:30;;;;;;;;;15.50;15.00;;;;;;;;3725058;38;18265;-63
2021/03/29 03:41:57;;;;;;;;;20.00;14.75;;;;;;;;3725015;37;21049;-64
2021/03/29 03:44:23;;;;;;;;;16.00;14.25;;;;;;;;3725071;37;21065;-64
2021/03/29 03:46:51;;;;;;;;;20.75;20.00;;;;;;;;3724992;37;21049;-63
2021/03/29 03:49:20;;;;;;;;;17.25;15.00;;;;;;;;3725154;37;21051;-62
2021/03/29 03:51:46;;;;;;;;;12.25;11.50;;;;;;;;3725094;37;21040;-63
2021/03/29 03:54:13;;;;;;;;;18.75;15.50;;;;;;;;3725084;37;21005;-63
2021/03/29 03:56:40;;;;;;;;;17.75;16.50;;;;;;;;3725294;37;21032;-64
2021/03/29 03:59:08;;;;;;;;;17.50;15.75;;;;;;;;3724787;38;21056;-64
2021/03/29 04:01:40;;;;;;;;;16.50;15.00;;;;;;;;3724797;37;21043;-64
2021/03/29 04:04:12;;;;;;;;;21.25;19.25;;;;;;;;3725029;37;21039;-65
2021/03/29 04:06:38;;;;;;;;;13.50;10.00;;;;;;;;3724647;37;21005;-64
2021/03/29 04:09:04;;;;;;;;;13.00;10.25;;;;;;;;3725138;37;20947;-64
2021/03/29 04:11:30;;;;;;;;;17.25;16.50;;;;;;;;3725244;37;18211;-64
2021/03/29 04:13:57;;;;;;;;;16.75;16.50;;;;;;;;3725136;37;20985;-63
2021/03/29 04:16:26;;;;;;;;;26.00;17.50;;;;;;;;3724865;38;18212;-64
2021/03/29 04:18:52;;;;;;;;;15.50;13.25;;;;;;;;3725225;38;21126;-66
2021/03/29 04:21:18;;;;;;;;;15.00;14.00;;;;;;;;3725268;37;21005;-64
2021/03/29 04:23:44;;;;;;;;;15.75;14.50;;;;;;;;3725295;37;18571;-64
2021/03/29 04:26:11;;;;;;;;;18.50;17.00;;;;;;;;3725345;37;20993;-65
2021/03/29 04:28:46;;;;;;;;;16.25;13.00;;;;;;;;3725330;38;18197;-65
2021/03/29 04:31:12;;;;;;;;;22.50;18.75;;;;;;;;3725320;37;20974;-65
2021/03/29 04:33:37;;;;;;;;;19.75;17.25;;;;;;;;3725284;38;20988;-65
2021/03/29 04:36:03;;;;;;;;;20.25;17.75;;;;;;;;3725350;37;18168;-65
2021/03/29 04:38:29;;;;;;;;;17.00;16.00;;;;;;;;3725180;38;18190;-63
2021/03/29 04:40:55;;;;;;;;;21.00;18.50;;;;;;;;3725410;37;20988;-63
2021/03/29 04:43:21;;;;;;;;;16.00;14.50;;;;;;;;3725472;37;18158;-64
2021/03/29 04:45:46;;;;;;;;;16.50;15.75;;;;;;;;3724986;38;18187;-65
2021/03/29 04:48:12;;;;;;;;;17.75;14.50;;;;;;;;3725288;38;18163;-63
2021/03/29 04:50:38;;;;;;;;;15.50;13.75;;;;;;;;3725406;37;18163;-64
2021/03/29 04:53:05;;;;;;;;;16.75;16.00;;;;;;;;3725825;37;18169;-64
2021/03/29 04:55:31;;;;;;;;;15.75;15.00;;;;;;;;3725659;37;18142;-68
2021/03/29 04:57:56;;;;;;;;;14.75;14.00;;;;;;;;3725344;38;20816;-66
2021/03/29 05:00:23;;;;;;;;;18.75;16.75;;;;;;;;3725476;38;18161;-66
2021/03/29 05:02:48;;;;;;;;;14.00;12.25;;;;;;;;3725334;38;18159;-65
2021/03/29 05:05:14;;;;;;;;;18.00;18.00;;;;;;;;3725168;37;20947;-66
2021/03/29 05:07:40;;;;;;;;;17.50;16.00;;;;;;;;3725269;38;18124;-67
2021/03/29 05:10:10;;;;;;;;;20.00;15.25;;;;;;;;3725385;37;20931;-66
2021/03/29 05:12:35;;;;;;;;;17.50;14.25;;;;;;;;3725192;37;18129;-64
2021/03/29 05:15:02;;;;;;;;;17.25;15.50;;;;;;;;3725526;37;20841;-67
2021/03/29 05:17:28;;;;;;;;;11.50;9.00;;;;;;;;3725516;37;18124;-65
2021/03/29 05:19:54;;;;;;;;;20.25;16.25;;;;;;;;3731827;37;20826;-65
2021/03/29 05:22:20;;;;;;;;;17.75;16.50;;;;;;;;3730213;37;18124;-65
2021/03/29 05:24:45;;;;;;;;;18.75;17.00;;;;;;;;3726141;38;18104;-66
2021/03/29 05:27:11;;;;;;;;;12.00;10.00;;;;;;;;3731109;37;18154;-66
2021/03/29 05:29:43;;;;;;;;;13.50;12.75;;;;;;;;3736886;37;18120;-67
2021/03/29 05:32:16;;;;;;;;;14.50;11.00;;;;;;;;3737029;37;20854;-66
2021/03/29 05:34:44;;;;;;;;;11.50;11.25;;;;;;;;3738162;38;20866;-67
2021/03/29 05:37:10;;;;;;;;;15.75;15.00;;;;;;;;3738123;38;20877;-68
2021/03/29 05:39:37;;;;;;;;;18.25;12.75;;;;;;;;3737236;37;20882;-69
2021/03/29 05:42:06;;;;;;;;;13.25;12.50;;;;;;;;3740376;38;20845;-64
2021/03/29 05:44:35;;;;;;;;;19.75;15.00;;;;;;;;3728018;37;20870;-65
2021/03/29 05:47:02;;;;;;;;;15.00;15.00;;;;;;;;3726829;38;20858;-65
2021/03/29 05:49:27;;;;;;;;;16.25;15.00;;;;;;;;3726057;37;20862;-63
2021/03/29 05:51:59;;;;;;;;;10.75;10.00;;;;;;;;3726313;38;20876;-64
2021/03/29 05:54:26;;;;;;;;;15.50;15.50;;;;;;;;3725975;37;18071;-64
2021/03/29 05:56:53;;;;;;;;;13.25;11.50;;;;;;;;3725585;38;20878;-65
2021/03/29 05:59:21;;;;;;;;;15.00;13.00;;;;;;;;3725260;37;20822;-65
2021/03/29 06:01:49;;;;;;;;;14.25;12.75;;;;;;;;3725925;38;20874;-66
2021/03/29 06:04:15;;;;;;;;;10.00;9.75;;;;;;;;3725974;37;20834;-66
2021/03/29 06:06:48;;;;;;;;;16.50;14.50;;;;;;;;3725610;38;20770;-63
2021/03/29 06:09:26;;;;;;;;;6.75;5.25;;;;;;;;3731464;38;20827;-66
2021/03/29 06:11:52;;;;;;;;;14.75;14.00;;;;;;;;3726781;37;20702;-67
2021/03/29 06:14:19;;;;;;;;;19.50;16.75;;;;;;;;3725922;38;20831;-66
2021/03/29 06:17:00;;;;;;;;;13.25;9.75;;;;;;;;3725783;37;18052;-62
2021/03/29 06:19:38;;;;;;;;;14.50;13.50;;;;;;;;3725764;37;20776;-64
2021/03/29 06:22:11;;;;;;;;;20.25;15.50;;;;;;;;3728071;38;20788;-65
2021/03/29 06:24:57;;;;;;;;;20.75;16.25;;;;;;;;3725489;38;20768;-65
2021/03/29 06:27:24;;;;;;;;;14.75;9.50;;;;;;;;3725444;37;20823;-64
2021/03/29 06:29:51;;;;;;;;;19.25;17.50;;;;;;;;3725112;37;20802;-65
2021/03/29 06:32:20;;;;;;;;;15.75;14.50;;;;;;;;3725355;37;20823;-66
2021/03/29 06:34:46;;;;;;;;;21.00;18.50;;;;;;;;3725272;37;20827;-65
2021/03/29 06:37:18;;;;;;;;;19.00;15.50;;;;;;;;3725442;38;20832;-64
2021/03/29 06:39:44;;;;;;;;;13.25;9.25;;;;;;;;3725283;38;20806;-64
2021/03/29 06:42:10;;;;;;;;;16.00;14.00;;;;;;;;3725332;37;20734;-65
2021/03/29 06:44:37;;;;;;;;;18.75;17.75;;;;;;;;3725479;37;18003;-64
2021/03/29 06:47:06;;;;;;;;;21.00;16.25;;;;;;;;3725449;37;20814;-64
2021/03/29 06:49:39;;;;;;;;;17.00;15.00;;;;;;;;3725467;37;20784;-64
2021/03/29 06:52:21;;;;;;;;;15.25;14.50;;;;;;;;3728414;37;20785;-65
2021/03/29 06:54:48;;;;;;;;;16.00;14.00;;;;;;;;3725286;37;20757;-65
2021/03/29 06:57:25;;;;;;;;;15.00;13.00;;;;;;;;3726005;37;20783;-65
2021/03/29 06:59:51;;;;;;;;;17.75;15.25;;;;;;;;3726049;37;20728;-66
2021/03/29 07:02:17;;;;;;;;;18.50;16.50;;;;;;;;3725585;37;20793;-67
2021/03/29 07:04:43;;;;;;;;;14.00;12.00;;;;;;;;3725899;37;17965;-67
2021/03/29 07:07:08;;;;;;;;;13.75;10.75;;;;;;;;3726138;38;17965;-66
2021/03/29 07:09:36;;;;;;;;;16.50;15.50;;;;;;;;3725831;37;20727;-67
2021/03/29 07:12:05;;;;;;;;;18.00;16.25;;;;;;;;3725955;37;17936;-68
2021/03/29 07:14:32;;;;;;;;;18.00;16.00;;;;;;;;3725924;37;20768;-67
2021/03/29 07:16:59;;;;;;;;;17.50;17.50;;;;;;;;3725795;38;20725;-66
2021/03/29 07:19:25;;;;;;;;;21.50;17.75;;;;;;;;3725889;37;20760;-66
2021/03/29 07:21:51;;;;;;;;;18.25;15.75;;;;;;;;3725433;38;20750;-66
2021/03/29 07:24:17;;;;;;;;;18.25;17.50;;;;;;;;3724862;37;20732;-65
2021/03/29 07:26:46;;;;;;;;;17.00;15.50;;;;;;;;3725506;38;20833;-67
2021/03/29 07:29:31;;;;;;;;;15.75;14.00;;;;;;;;3725837;38;17956;-65
2021/03/29 07:31:58;;;;;;;;;13.00;12.75;;;;;;;;3725697;37;20720;-66
2021/03/29 07:34:42;;;;;;;;;12.75;10.25;;;;;;;;3725922;37;20740;-66
2021/03/29 07:37:26;;;;;;;;;13.75;13.75;;;;;;;;3725540;37;20714;-67
2021/03/29 07:39:57;;;;;;;;;14.75;11.75;;;;;;;;3725584;37;20728;-67
2021/03/29 07:42:33;;;;;;;;;17.25;13.25;;;;;;;;3726446;37;20693;-65
2021/03/29 07:45:00;;;;;;;;;12.50;11.50;;;;;;;;3725837;38;20675;-78
2021/03/29 07:47:46;;;;;;;;;12.75;10.25;;;;;;;;3725728;38;20652;-65
2021/03/29 07:50:49;;;;;;;;;15.50;13.50;;;;;;;;3725372;38;20656;-66
2021/03/29 07:53:19;;;;;;;;;16.50;14.75;;;;;;;;3725526;37;20681;-65
2021/03/29 07:55:50;;;;;;;;;17.00;16.50;;;;;;;;3725753;37;20730;-65
2021/03/29 07:58:20;;;;;;;;;14.00;12.50;;;;;;;;3725861;38;20659;-66
2021/03/29 08:00:48;;;;;;;;;14.25;13.75;;;;;;;;3725980;37;20670;-65
2021/03/29 08:03:34;;;;;;;;;11.50;10.00;;;;;;;;3725880;38;20663;-65
2021/03/29 08:06:00;;;;;;;;;14.25;12.50;;;;;;;;3725589;37;20684;-66
2021/03/29 08:08:46;;;;;;;;;12.75;11.50;;;;;;;;3725453;37;20661;-64
2021/03/29 08:11:14;;;;;;;;;9.00;7.25;;;;;;;;3726095;38;20669;-69
2021/03/29 08:13:53;;;;;;;;;11.00;10.00;;;;;;;;3727048;37;20607;-66
2021/03/29 08:16:36;;;;;;;;;10.50;9.25;;;;;;;;3725630;38;20634;-67
2021/03/29 08:19:12;;;;;;;;;10.25;7.50;;;;;;;;3725636;38;20656;-66
2021/03/29 08:21:56;;;;;;;;;15.50;11.00;;;;;;;;3725527;38;20582;-73
2021/03/29 08:24:26;;;;;;;;;11.50;10.75;;;;;;;;3725371;38;20673;-68
2021/03/29 08:26:55;;;;;;;;;9.00;7.50;;;;;;;;3725713;37;20624;-64
2021/03/29 08:29:33;;;;;;;;;16.00;13.00;;;;;;;;3725724;38;20521;-65
2021/03/29 08:32:34;;;;;;;;;10.25;10.00;;;;;;;;3725416;37;20665;-64
2021/03/29 08:35:04;;;;;;;;;11.00;10.50;;;;;;;;3725668;38;20605;-64
2021/03/29 08:37:42;;;;;;;;;12.00;11.75;;;;;;;;3725465;38;20608;-64
2021/03/29 08:40:12;;;;;;;;;9.75;9.50;;;;;;;;3724925;38;20685;-65
2021/03/29 08:42:39;;;;;;;;;15.75;15.50;;;;;;;;3725786;38;20604;-67
2021/03/29 08:45:13;;;;;;;;;11.50;11.00;;;;;;;;3727116;37;20640;-64
2021/03/29 08:47:41;;;;;;;;;13.25;11.75;;;;;;;;3727255;38;20580;-65
2021/03/29 08:50:12;;;;;;;;;13.00;11.75;;;;;;;;3726749;38;20594;-65
2021/03/29 08:52:40;;;;;;;;;13.00;12.25;;;;;;;;3725654;38;20596;-65
2021/03/29 08:55:06;;;;;;;;;12.50;11.50;;;;;;;;3725501;37;20582;-70
2021/03/29 08:57:32;;;;;;;;;14.75;12.25;;;;;;;;3725468;37;20573;-70
2021/03/29 09:00:15;;;;;;;;;12.75;12.00;;;;;;;;3725432;37;20600;-66
2021/03/29 09:02:42;;;;;;;;;12.00;12.00;;;;;;;;3725259;38;20585;-68
2021/03/29 09:05:10;;;;;;;;;12.75;11.75;;;;;;;;3725405;37;20620;-66
2021/03/29 09:07:39;;;;;;;;;8.00;8.00;;;;;;;;3725396;38;20664;-67
2021/03/29 09:10:25;;;;;;;;;14.25;13.75;;;;;;;;3725218;37;20465;-66
2021/03/29 09:12:58;;;;;;;;;12.00;9.75;;;;;;;;3726352;38;20624;-65
2021/03/29 09:15:25;;;;;;;;;12.50;11.00;;;;;;;;3725864;38;20534;-69
2021/03/29 09:17:56;;;;;;;;;6.25;6.25;;;;;;;;3725135;38;20555;-66
2021/03/29 09:20:26;;;;;;;;;11.25;9.00;;;;;;;;3725351;37;20401;-68
2021/03/29 09:22:52;;;;;;;;;9.00;6.50;;;;;;;;3725400;38;20508;-64
2021/03/29 09:25:44;;;;;;;;;10.75;10.00;;;;;;;;3725729;37;20556;-67
2021/03/29 09:28:36;;;;;;;;;6.25;4.00;;;;;;;;3725507;38;17811;-66
2021/03/29 09:31:04;;;;;;;;;6.50;4.50;;;;;;;;3725102;37;20491;-66
2021/03/29 09:33:30;;;;;;;;;10.50;10.50;;;;;;;;3725319;37;20473;-66
2021/03/29 09:35:57;;;;;;;;;12.50;10.75;;;;;;;;3725184;38;20562;-66
2021/03/29 09:38:40;;;;;;;;;5.75;3.25;;;;;;;;3725213;37;20541;-65
2021/03/29 09:41:26;;;;;;;;;9.50;8.00;;;;;;;;3725332;37;20465;-64
2021/03/29 09:43:53;;;;;;;;;9.25;8.00;;;;;;;;3724891;38;20438;-64
2021/03/29 09:46:30;;;;;;;;;8.25;7.75;;;;;;;;3724865;37;20425;-67
2021/03/29 09:49:17;;;;;;;;;5.00;4.75;;;;;;;;3724994;38;20436;-64
2021/03/29 09:51:44;;;;;;;;;10.00;8.00;;;;;;;;3725373;38;20421;-65
2021/03/29 09:54:28;;;;;;;;;8.50;6.00;;;;;;;;3725423;38;20461;-65
2021/03/29 09:56:56;;;;;;;;;6.25;4.75;;;;;;;;3725612;37;20475;-66
2021/03/29 09:59:35;;;;;;;;;7.00;6.50;;;;;;;;3725533;37;20433;-65
2021/03/29 10:02:09;;;;;;;;;7.00;5.25;;;;;;;;3725754;37;20432;-64
2021/03/29 10:04:34;;;;;;;;;7.50;7.00;;;;;;;;3725609;37;20447;-64
2021/03/29 10:07:00;;;;;;;;;9.25;7.75;;;;;;;;3725489;38;20436;-65
2021/03/29 10:09:30;;;;;;;;;7.50;7.00;;;;;;;;3725708;37;17737;-65
2021/03/29 10:11:56;;;;;;;;;10.25;8.25;;;;;;;;3725755;38;20451;-64
2021/03/29 10:14:30;;;;;;;;;6.00;5.50;;;;;;;;3725436;38;20507;-64
2021/03/29 10:16:56;;;;;;;;;12.00;7.00;;;;;;;;3725616;38;20519;-63
2021/03/29 10:19:29;;;;;;;;;11.50;9.25;;;;;;;;3725631;37;20422;-63
2021/03/29 10:22:08;;;;;;;;;9.00;7.00;;;;;;;;3725732;37;17885;-63
2021/03/29 10:24:55;;;;;;;;;8.75;8.75;;;;;;;;3725674;37;20432;-64
2021/03/29 10:27:26;;;;;;;;;9.25;7.75;;;;;;;;3725420;38;20504;-64
2021/03/29 10:29:57;;;;;;;;;9.00;8.75;;;;;;;;3725671;37;20450;-66
2021/03/29 10:32:22;;;;;;;;;5.75;5.00;;;;;;;;3725567;38;20403;-65
2021/03/29 10:34:49;;;;;;;;;7.25;7.25;;;;;;;;3725627;38;20415;-66
2021/03/29 10:37:23;;;;;;;;;10.50;9.00;;;;;;;;3725780;37;17697;-63
2021/03/29 10:39:53;;;;;;;;;9.00;7.75;;;;;;;;3725641;38;20476;-66
2021/03/29 10:42:20;;;;;;;;;7.00;6.25;;;;;;;;3725572;38;20462;-65
2021/03/29 10:44:46;;;;;;;;;6.00;5.75;;;;;;;;3725406;38;20408;-63
2021/03/29 10:47:12;;;;;;;;;7.00;6.00;;;;;;;;3725645;37;20397;-65
2021/03/29 10:49:40;;;;;;;;;5.25;5.25;;;;;;;;3725596;37;20507;-68
2021/03/29 10:52:07;;;;;;;;;7.75;6.25;;;;;;;;3725585;38;17704;-64
2021/03/29 10:54:32;;;;;;;;;8.00;7.00;;;;;;;;3725447;38;20374;-64
2021/03/29 10:56:59;;;;;;;;;8.75;8.25;;;;;;;;3724884;37;20399;-62
2021/03/29 10:59:24;;;;;;;;;8.00;7.25;;;;;;;;3725674;38;17691;-65
2021/03/29 11:01:50;;;;;;;;;8.50;8.00;;;;;;;;3725284;37;20404;-63
2021/03/29 11:04:16;;;;;;;;;6.25;6.25;;;;;;;;3725411;38;17651;-63
2021/03/29 11:06:41;;;;;;;;;8.75;7.75;;;;;;;;3725583;37;17665;-64
2021/03/29 11:09:07;;;;;;;;;9.00;7.50;;;;;;;;3725416;38;17677;-63
2021/03/29 11:11:33;;;;;;;;;7.25;6.00;;;;;;;;3725547;37;17667;-63
2021/03/29 11:13:59;;;;;;;;;6.00;6.00;;;;;;;;3725374;37;20311;-66
2021/03/29 11:16:28;;;;;;;;;8.50;7.00;;;;;;;;3725495;37;20312;-63
2021/03/29 11:18:53;;;;;;;;;8.75;7.75;;;;;;;;3725610;37;17655;-65
2021/03/29 11:21:19;;;;;;;;;5.25;4.25;;;;;;;;3726608;37;20296;-63
2021/03/29 11:23:45;;;;;;;;;10.00;9.00;;;;;;;;3726049;38;17644;-64
2021/03/29 11:26:18;;;;;;;;;7.50;6.75;;;;;;;;3725628;38;17659;-66
2021/03/29 11:28:44;;;;;;;;;9.25;9.25;;;;;;;;3725480;38;20305;-65
2021/03/29 11:31:09;;;;;;;;;10.00;6.50;;;;;;;;3725429;37;20346;-66
2021/03/29 11:33:35;;;;;;;;;6.75;6.75;;;;;;;;3725309;38;17621;-64
2021/03/29 11:36:01;;;;;;;;;5.25;5.25;;;;;;;;3725405;37;17628;-64
2021/03/29 11:38:27;;;;;;;;;5.00;5.00;;;;;;;;3725388;37;17606;-65
2021/03/29 11:40:52;;;;;;;;;7.00;6.00;;;;;;;;3725503;37;17620;-65
2021/03/29 11:43:18;;;;;;;;;6.75;6.25;;;;;;;;3726171;37;17607;-64
2021/03/29 11:45:44;;;;;;;;;6.00;5.00;;;;;;;;3726090;38;17630;-64
2021/03/29 11:48:10;;;;;;;;;9.75;7.75;;;;;;;;3725378;37;17616;-64
2021/03/29 11:50:36;;;;;;;;;10.00;9.00;;;;;;;;3725475;37;17613;-65
2021/03/29 11:53:07;;;;;;;;;7.00;7.00;;;;;;;;3725683;38;20446;-67
2021/03/29 11:55:33;;;;;;;;;4.75;3.00;;;;;;;;3725169;38;17621;-65
2021/03/29 11:57:59;;;;;;;;;5.00;5.00;;;;;;;;3725228;38;20315;-66
2021/03/29 12:00:35;;;;;;;;;6.75;6.75;;;;;;;;3725415;37;18578;-65
2021/03/29 12:03:15;;;;;;;;;6.00;5.75;;;;;;;;3725391;37;18580;-65
2021/03/29 12:05:47;;;;;;;;;8.50;7.50;;;;;;;;3725329;37;20285;-68
2021/03/29 12:08:25;;;;;;;;;11.25;8.50;;;;;;;;3725152;38;21241;-65
2021/03/29 12:13:48;;;;;;;;;10.00;8.75;;;;;;;;3725255;38;21169;-66
2021/03/29 12:16:15;;;;;;;;;8.00;6.75;;;;;;;;3725233;38;21283;-66
2021/03/29 12:18:52;;;;;;;;;10.00;9.00;;;;;;;;3724951;37;18573;-64
2021/03/29 12:21:22;;;;;;;;;6.00;6.00;;;;;;;;3725187;37;21274;-63
2021/03/29 12:23:49;;;;;;;;;9.75;6.75;;;;;;;;3725045;37;21224;-64
2021/03/29 12:26:16;;;;;;;;;7.50;7.50;;;;;;;;3725136;37;21228;-64
2021/03/29 12:28:46;;;;;;;;;6.75;6.00;;;;;;;;3724751;38;21565;-63
2021/03/29 12:31:13;;;;;;;;;7.50;6.00;;;;;;;;3725233;37;21195;-63
2021/03/29 12:33:40;;;;;;;;;7.50;6.50;;;;;;;;3725295;37;21207;-64
2021/03/29 12:36:09;;;;;;;;;10.00;9.00;;;;;;;;3724808;38;21200;-63
2021/03/29 12:38:38;;;;;;;;;2.00;2.00;;;;;;;;3725180;37;21272;-64
2021/03/29 12:41:05;;;;;;;;;8.00;7.00;;;;;;;;3725083;37;21210;-64
2021/03/29 12:43:44;;;;;;;;;7.00;7.00;;;;;;;;3725333;37;21221;-65
2021/03/29 12:46:12;;;;;;;;;7.00;7.00;;;;;;;;3725533;38;21184;-65
2021/03/29 12:48:40;;;;;;;;;11.00;8.25;;;;;;;;3725225;37;21200;-64
2021/03/29 12:51:13;;;;;;;;;9.25;6.75;;;;;;;;3725322;37;21217;-64
2021/03/29 12:53:39;;;;;;;;;7.50;7.25;;;;;;;;3725415;37;21216;-64
2021/03/29 12:56:05;;;;;;;;;9.50;8.00;;;;;;;;3725400;38;21171;-65
2021/03/29 12:58:38;;;;;;;;;9.00;8.50;;;;;;;;3725196;38;18516;-63
2021/03/29 13:01:08;;;;;;;;;7.00;6.00;;;;;;;;3725481;37;21219;-65
2021/03/29 13:03:39;;;;;;;;;7.75;7.75;;;;;;;;3725490;37;21224;-63
2021/03/29 13:06:18;;;;;;;;;9.75;8.00;;;;;;;;3725137;37;21177;-64
2021/03/29 13:08:44;;;;;;;;;8.50;7.50;;;;;;;;3725238;37;21180;-64
2021/03/29 13:11:30;;;;;;;;;7.00;6.50;;;;;;;;3725243;37;21156;-65
2021/03/29 13:13:57;;;;;;;;;7.25;7.00;;;;;;;;3725366;37;21214;-66
2021/03/29 13:16:33;;;;;;;;;5.25;5.25;;;;;;;;3725401;37;21195;-65
2021/03/29 13:18:59;;;;;;;;;9.50;7.75;;;;;;;;3717642;38;21214;-64
2021/03/29 13:21:25;;;;;;;;;10.50;10.00;;;;;;;;3722427;38;21194;-64
2021/03/29 13:28:51;;;;;;;;;8.75;7.25;;;;;;;;3725190;37;20972;-63
2021/03/29 13:36:13;;;;;;;;;4.00;4.00;;;;;;;;3724975;37;21169;-64
2021/03/29 13:38:39;;;;;;;;;7.00;6.00;;;;;;;;3725324;38;21220;-64
2021/03/29 13:41:05;;;;;;;;;8.00;7.00;;;;;;;;3725419;38;21227;-64
2021/03/29 13:43:35;;;;;;;;;8.00;6.75;;;;;;;;3725318;37;21278;-63
2021/03/29 13:46:01;;;;;;;;;6.25;5.75;;;;;;;;3725267;38;21212;-65
2021/03/29 13:48:29;;;;;;;;;5.50;5.25;;;;;;;;3725066;38;21220;-63
2021/03/29 13:50:56;;;;;;;;;5.50;5.50;;;;;;;;3724794;38;18772;-65
2021/03/29 13:53:25;;;;;;;;;7.50;6.00;;;;;;;;3725235;38;21191;-64
2021/03/29 13:55:51;;;;;;;;;5.75;5.50;;;;;;;;3726341;38;21218;-64
2021/03/29 13:58:17;;;;;;;;;5.00;4.00;;;;;;;;3725818;37;21212;-64
2021/03/29 14:00:45;;;;;;;;;3.00;3.00;;;;;;;;3725441;38;18461;-65
2021/03/29 14:03:16;;;;;;;;;5.75;5.75;;;;;;;;3724953;38;18429;-63
2021/03/29 14:05:42;;;;;;;;;5.00;5.00;;;;;;;;3725193;37;21189;-64
2021/03/29 14:08:10;;;;;;;;;8.00;8.00;;;;;;;;3725034;38;21202;-64
2021/03/29 14:10:37;;;;;;;;;6.50;6.50;;;;;;;;3724802;37;21197;-64
2021/03/29 14:13:04;;;;;;;;;4.25;4.00;;;;;;;;3725908;38;21195;-65
2021/03/29 14:15:30;;;;;;;;;6.50;6.00;;;;;;;;3724976;37;21141;-64
2021/03/29 14:17:57;;;;;;;;;1.50;1.50;;;;;;;;3725077;38;21152;-64
2021/03/29 14:20:24;;;;;;;;;7.75;6.50;;;;;;;;3725986;37;21172;-65
2021/03/29 14:22:50;;;;;;;;;8.50;7.00;;;;;;;;3724753;37;21150;-64
2021/03/29 14:25:19;;;;;;;;;6.25;6.25;;;;;;;;3725078;37;21137;-64
2021/03/29 14:27:45;;;;;;;;;6.25;6.00;;;;;;;;3725213;37;18423;-64
2021/03/29 14:30:11;;;;;;;;;3.75;3.25;;;;;;;;3725151;38;21162;-62
2021/03/29 14:32:37;;;;;;;;;5.75;5.75;;;;;;;;3725102;37;18406;-65
2021/03/29 14:38:00;;;;;;;;;5.25;5.25;;;;;;;;3725006;37;21116;-65
2021/03/29 14:40:45;;;;;;;;;6.00;5.00;;;;;;;;3725170;37;21166;-64
2021/03/29 14:46:09;;;;;;;;;8.75;7.00;;;;;;;;3725225;37;21089;-65
2021/03/29 14:48:35;;;;;;;;;9.00;8.00;;;;;;;;3725270;38;21154;-65
2021/03/29 14:51:06;;;;;;;;;7.00;7.00;;;;;;;;3725242;37;21076;-65
2021/03/29 14:53:33;;;;;;;;;6.50;6.50;;;;;;;;3725307;38;18377;-64
2021/03/29 14:56:01;;;;;;;;;7.00;6.50;;;;;;;;3725081;38;21091;-64
2021/03/29 14:58:27;;;;;;;;;7.50;7.00;;;;;;;;3725247;37;18385;-64
2021/03/29 15:00:53;;;;;;;;;9.50;7.25;;;;;;;;3724972;38;21096;-63